Lavenham, United Kingdom
Current Conditions -  °F | °C
As of 2:50 AM on Tuesday 23 Dec 2014 (Local Time) from EGUW Reporting Station
Overcast Overcast  
Wind Chill: 50°   Ceiling: 2200
Heat Index: 50°   Visibility: 6mi
Dew Point: 45°   Wind: 20mph
Humidity: 82%   Direction: 240°WSW
Pressure: 29.97"   Gusts: NA
Location:  52.11°N, 0.8°E
Report Text: EGUW 230250Z AUTO 24017KT 9999 OVC022/// 10/07 Q1015
Loading
Personal Weather Stations






























Interactive Weather Map New forecast layout! Learn more

10-Day Weather Forecast

Advertisements
Track Severe Weather on mobile